Time;durP1;ratioP1;P1;durP2;ratioP2;P2;SDS_P1;SDS_P2;PMS_P1;PMS_P2;Temp;Humidity;BMP_temperature;BMP_pressure;BME280_temperature;BME280_humidity;BME280_pressure;Samples;Min_cycle;Max_cycle;Signal;HPM_P1;HPM_P2
2022/09/14 00:01:48;;;;;;;3.42;3.03;;;;;;;;;;4988865;28;20232;-58
2022/09/14 00:04:17;;;;;;;3.50;2.70;;;;;;;;;;4982259;28;20193;-57
2022/09/14 00:06:44;;;;;;;3.83;3.17;;;;;;;;;;4964789;28;20308;-55
2022/09/14 00:09:15;;;;;;;3.08;2.75;;;;;;;;;;4985984;28;20283;-54
2022/09/14 00:11:41;;;;;;;4.00;3.00;;;;;;;;;;4991382;28;20551;-57
2022/09/14 00:14:07;;;;;;;2.97;2.67;;;;;;;;;;4980482;28;20293;-58
2022/09/14 00:16:36;;;;;;;4.00;2.85;;;;;;;;;;4990598;28;20225;-58
2022/09/14 00:19:07;;;;;;;3.13;2.58;;;;;;;;;;4986896;28;20237;-57
2022/09/14 00:21:35;;;;;;;3.67;2.80;;;;;;;;;;4981469;28;20460;-58
2022/09/14 00:24:03;;;;;;;3.20;2.70;;;;;;;;;;4988477;28;20728;-57
2022/09/14 00:26:29;;;;;;;3.97;2.72;;;;;;;;;;4968323;28;20657;-58
2022/09/14 00:28:57;;;;;;;3.40;2.60;;;;;;;;;;4990209;28;20201;-57
2022/09/14 00:31:24;;;;;;;5.00;2.60;;;;;;;;;;4987372;28;20300;-57
2022/09/14 00:33:51;;;;;;;2.72;2.50;;;;;;;;;;4984495;28;20244;-56
2022/09/14 00:36:21;;;;;;;3.78;2.97;;;;;;;;;;4988141;28;20292;-57
2022/09/14 00:38:48;;;;;;;2.97;2.67;;;;;;;;;;4966861;28;20291;-57
2022/09/14 00:41:18;;;;;;;3.03;2.65;;;;;;;;;;4985417;28;20225;-58
2022/09/14 00:43:58;;;;;;;3.42;2.67;;;;;;;;;;4984688;28;20622;-57
2022/09/14 00:46:27;;;;;;;3.80;2.85;;;;;;;;;;4983957;28;20236;-58
2022/09/14 00:48:55;;;;;;;3.50;2.78;;;;;;;;;;4988573;28;20602;-56
2022/09/14 00:51:22;;;;;;;3.80;2.58;;;;;;;;;;4971379;28;20308;-57
2022/09/14 00:53:49;;;;;;;3.35;2.70;;;;;;;;;;4984793;28;20743;-59
2022/09/14 00:56:15;;;;;;;4.45;3.13;;;;;;;;;;4971632;28;20287;-58
2022/09/14 00:58:43;;;;;;;4.40;2.88;;;;;;;;;;4989461;28;20200;-57
2022/09/14 01:01:10;;;;;;;4.95;2.50;;;;;;;;;;4967617;28;20310;-59
2022/09/14 01:03:36;;;;;;;2.97;2.40;;;;;;;;;;4984916;28;20251;-58
2022/09/14 01:06:15;;;;;;;2.92;2.58;;;;;;;;;;4982919;28;20201;-56
2022/09/14 01:08:48;;;;;;;4.68;2.63;;;;;;;;;;4965420;28;20287;-57
2022/09/14 01:11:40;;;;;;;3.47;2.95;;;;;;;;;;4971302;28;20278;-57
2022/09/14 01:14:20;;;;;;;2.75;2.50;;;;;;;;;;4986103;28;20209;-56
2022/09/14 01:16:48;;;;;;;2.85;2.55;;;;;;;;;;4967979;28;20300;-58
2022/09/14 01:19:45;;;;;;;2.70;2.42;;;;;;;;;;4946925;28;1039002;-55
2022/09/14 01:22:17;;;;;;;2.90;2.60;;;;;;;;;;4975242;28;20773;-57
2022/09/14 01:24:48;;;;;;;4.30;2.75;;;;;;;;;;4970265;28;20288;-57
2022/09/14 01:27:31;;;;;;;2.95;2.55;;;;;;;;;;4988548;28;20779;-57
2022/09/14 01:30:11;;;;;;;2.97;2.50;;;;;;;;;;4982569;28;20503;-57
2022/09/14 01:32:51;;;;;;;3.50;2.70;;;;;;;;;;4972068;28;20292;-58
2022/09/14 01:35:30;;;;;;;2.70;2.40;;;;;;;;;;4969385;28;20291;-57
2022/09/14 01:38:19;;;;;;;2.65;2.33;;;;;;;;;;4966220;28;20220;-57
2022/09/14 01:40:48;;;;;;;3.25;2.60;;;;;;;;;;4985769;28;20229;-57
2022/09/14 01:43:21;;;;;;;2.47;2.22;;;;;;;;;;4986843;28;20296;-57
2022/09/14 01:46:00;;;;;;;2.70;2.40;;;;;;;;;;4971334;28;20220;-57
2022/09/14 01:48:33;;;;;;;2.75;2.45;;;;;;;;;;4968528;28;20193;-57
2022/09/14 01:51:00;;;;;;;3.05;2.40;;;;;;;;;;4972177;28;20227;-59
2022/09/14 01:53:33;;;;;;;3.35;2.50;;;;;;;;;;4972921;28;20289;-57
2022/09/14 01:56:07;;;;;;;3.13;2.47;;;;;;;;;;4984543;28;20649;-57
2022/09/14 01:58:38;;;;;;;2.97;2.30;;;;;;;;;;4989212;28;20231;-58
2022/09/14 02:01:07;;;;;;;2.88;2.53;;;;;;;;;;4969502;28;20283;-57
2022/09/14 02:03:44;;;;;;;2.80;2.08;;;;;;;;;;4962264;28;20205;-58
2022/09/14 02:06:13;;;;;;;2.45;2.25;;;;;;;;;;4957709;28;20693;-57
2022/09/14 02:08:40;;;;;;;3.20;2.38;;;;;;;;;;4967974;28;20646;-58
2022/09/14 02:11:06;;;;;;;2.83;2.45;;;;;;;;;;4989463;28;20225;-58
2022/09/14 02:13:33;;;;;;;2.25;2.05;;;;;;;;;;4992380;28;20300;-57
2022/09/14 02:15:59;;;;;;;3.10;2.50;;;;;;;;;;4964041;28;20204;-58
2022/09/14 02:18:26;;;;;;;3.25;2.47;;;;;;;;;;4983808;28;20205;-57
2022/09/14 02:20:55;;;;;;;2.63;2.40;;;;;;;;;;4978494;28;20688;-59
2022/09/14 02:23:22;;;;;;;2.65;2.25;;;;;;;;;;4971443;28;20735;-56
2022/09/14 02:25:48;;;;;;;2.58;2.30;;;;;;;;;;4961476;28;20289;-58
2022/09/14 02:28:15;;;;;;;2.83;2.05;;;;;;;;;;4984074;28;20304;-56
2022/09/14 02:30:54;;;;;;;3.05;2.22;;;;;;;;;;4980680;28;20304;-57
2022/09/14 02:33:29;;;;;;;4.05;2.30;;;;;;;;;;4963269;28;20293;-57
2022/09/14 02:36:00;;;;;;;2.78;2.03;;;;;;;;;;4985742;28;20215;-57
2022/09/14 02:38:46;;;;;;;3.35;2.30;;;;;;;;;;4964335;28;20197;-56
2022/09/14 02:41:17;;;;;;;2.72;2.03;;;;;;;;;;4962086;28;20670;-57
2022/09/14 02:43:57;;;;;;;2.38;2.10;;;;;;;;;;4986331;28;20255;-56
2022/09/14 02:46:44;;;;;;;3.83;2.13;;;;;;;;;;4957832;28;20299;-58
2022/09/14 02:49:43;;;;;;;2.67;2.28;;;;;;;;;;4988447;28;20200;-58
2022/09/14 02:52:28;;;;;;;2.72;2.17;;;;;;;;;;4976540;28;20323;-58
2022/09/14 02:55:06;;;;;;;2.70;2.33;;;;;;;;;;4987579;28;20200;-55
2022/09/14 02:57:59;;;;;;;3.10;2.40;;;;;;;;;;4981341;28;20267;-58
2022/09/14 03:00:27;;;;;;;2.60;2.20;;;;;;;;;;4984377;28;20463;-58
2022/09/14 03:02:53;;;;;;;2.80;2.47;;;;;;;;;;4981828;28;20205;-57
2022/09/14 03:05:20;;;;;;;3.28;2.20;;;;;;;;;;4990735;28;20283;-54
2022/09/14 03:07:46;;;;;;;2.38;2.10;;;;;;;;;;4973011;28;20874;-58
2022/09/14 03:10:13;;;;;;;2.92;2.25;;;;;;;;;;4971682;28;20788;-58
2022/09/14 03:12:39;;;;;;;2.72;2.10;;;;;;;;;;4984566;28;20224;-58
2022/09/14 03:15:06;;;;;;;2.22;2.03;;;;;;;;;;4982711;28;20198;-58
2022/09/14 03:17:32;;;;;;;2.35;2.15;;;;;;;;;;4984613;28;20640;-57
2022/09/14 03:19:58;;;;;;;2.30;2.10;;;;;;;;;;4986584;28;20296;-59
2022/09/14 03:22:25;;;;;;;2.92;2.42;;;;;;;;;;4984322;28;20287;-57
2022/09/14 03:24:51;;;;;;;2.88;2.22;;;;;;;;;;4986788;28;20304;-58
2022/09/14 03:27:17;;;;;;;2.85;2.13;;;;;;;;;;4986276;28;20279;-58
2022/09/14 03:29:43;;;;;;;2.30;1.98;;;;;;;;;;4981797;28;20642;-58
2022/09/14 03:32:11;;;;;;;2.55;2.30;;;;;;;;;;4983737;28;20343;-58
2022/09/14 03:34:37;;;;;;;2.72;2.20;;;;;;;;;;4987250;28;20340;-58
2022/09/14 03:37:03;;;;;;;2.90;2.10;;;;;;;;;;4987815;28;20248;-57
2022/09/14 03:39:30;;;;;;;3.30;2.10;;;;;;;;;;4987302;28;20197;-57
2022/09/14 03:41:56;;;;;;;2.80;2.15;;;;;;;;;;4985467;28;20288;-58
2022/09/14 03:44:22;;;;;;;2.55;2.10;;;;;;;;;;4987579;28;20535;-54
2022/09/14 03:46:49;;;;;;;2.65;2.28;;;;;;;;;;4987004;28;20307;-58
2022/09/14 03:49:15;;;;;;;2.20;2.00;;;;;;;;;;4987147;28;20228;-58
2022/09/14 03:51:41;;;;;;;2.50;2.30;;;;;;;;;;4986576;28;20252;-57
2022/09/14 03:54:08;;;;;;;3.97;2.10;;;;;;;;;;4985582;28;20619;-57
2022/09/14 03:56:34;;;;;;;3.00;2.25;;;;;;;;;;4987303;28;20221;-58
2022/09/14 03:59:00;;;;;;;2.67;2.00;;;;;;;;;;4986094;28;20284;-57
2022/09/14 04:01:27;;;;;;;2.72;1.92;;;;;;;;;;4985191;28;20276;-56
2022/09/14 04:03:54;;;;;;;2.22;1.77;;;;;;;;;;4983230;28;20280;-58
2022/09/14 04:06:20;;;;;;;3.13;2.10;;;;;;;;;;4986819;28;20750;-58
2022/09/14 04:08:47;;;;;;;2.55;2.20;;;;;;;;;;4983523;28;20297;-57
2022/09/14 04:11:19;;;;;;;2.80;2.13;;;;;;;;;;4986955;28;20371;-57
2022/09/14 04:13:46;;;;;;;3.70;2.22;;;;;;;;;;4984991;28;20288;-56
2022/09/14 04:16:13;;;;;;;2.45;2.10;;;;;;;;;;4983160;28;20284;-58
2022/09/14 04:18:39;;;;;;;2.38;2.17;;;;;;;;;;4986855;28;20213;-58
2022/09/14 04:21:08;;;;;;;2.53;1.90;;;;;;;;;;4985519;28;20359;-58
2022/09/14 04:23:35;;;;;;;2.63;1.95;;;;;;;;;;4970357;28;20716;-59
2022/09/14 04:26:24;;;;;;;2.30;2.08;;;;;;;;;;4978996;28;20574;-58
2022/09/14 04:28:50;;;;;;;2.88;2.05;;;;;;;;;;4984547;28;20292;-57
2022/09/14 04:31:17;;;;;;;2.60;1.98;;;;;;;;;;4985882;28;20220;-58
2022/09/14 04:33:44;;;;;;;3.63;2.20;;;;;;;;;;4970128;28;20558;-58
2022/09/14 04:36:12;;;;;;;2.70;2.10;;;;;;;;;;4990125;28;20201;-56
2022/09/14 04:38:40;;;;;;;2.60;2.10;;;;;;;;;;4990217;28;20283;-58
2022/09/14 04:41:09;;;;;;;2.47;1.90;;;;;;;;;;4991752;28;20196;-58
2022/09/14 04:43:35;;;;;;;2.25;1.80;;;;;;;;;;4985595;28;20296;-57
2022/09/14 04:46:07;;;;;;;3.33;2.22;;;;;;;;;;4983675;28;20288;-56
2022/09/14 04:48:34;;;;;;;3.95;1.90;;;;;;;;;;4991774;28;20201;-58
2022/09/14 04:51:05;;;;;;;2.63;1.90;;;;;;;;;;4988957;28;20251;-56
2022/09/14 04:53:32;;;;;;;2.70;2.03;;;;;;;;;;4989573;28;20228;-56
2022/09/14 04:56:00;;;;;;;2.42;1.77;;;;;;;;;;4971950;28;20284;-58
2022/09/14 04:58:27;;;;;;;2.28;1.63;;;;;;;;;;4956131;28;20728;-56
2022/09/14 05:01:03;;;;;;;2.60;2.10;;;;;;;;;;4986442;28;20268;-58
2022/09/14 05:03:30;;;;;;;3.92;2.20;;;;;;;;;;4986550;28;20235;-57
2022/09/14 05:06:01;;;;;;;1.70;1.60;;;;;;;;;;4990244;28;20279;-57
2022/09/14 05:08:27;;;;;;;2.35;1.77;;;;;;;;;;4988279;28;20660;-57
2022/09/14 05:10:55;;;;;;;2.65;1.95;;;;;;;;;;4981575;28;20231;-57
2022/09/14 05:13:22;;;;;;;2.30;1.90;;;;;;;;;;4989910;28;20292;-57
2022/09/14 05:15:49;;;;;;;2.05;1.85;;;;;;;;;;4987116;28;20293;-57
2022/09/14 05:18:16;;;;;;;2.53;1.92;;;;;;;;;;4988442;28;20718;-57
2022/09/14 05:20:42;;;;;;;2.78;1.92;;;;;;;;;;4982113;28;20292;-58
2022/09/14 05:23:09;;;;;;;2.22;1.80;;;;;;;;;;4990039;28;20612;-58
2022/09/14 05:25:35;;;;;;;2.15;1.65;;;;;;;;;;4987275;28;20295;-58
2022/09/14 05:28:02;;;;;;;2.05;1.80;;;;;;;;;;4982452;28;20307;-56
2022/09/14 05:30:28;;;;;;;2.20;2.00;;;;;;;;;;4970316;28;20203;-57
2022/09/14 05:32:54;;;;;;;4.65;2.10;;;;;;;;;;4979448;28;20764;-58
2022/09/14 05:35:23;;;;;;;2.33;1.90;;;;;;;;;;4983416;28;20228;-58
2022/09/14 05:37:49;;;;;;;2.35;1.80;;;;;;;;;;4989118;28;20303;-58
2022/09/14 05:40:16;;;;;;;5.95;2.03;;;;;;;;;;4986029;28;20229;-60
2022/09/14 05:42:42;;;;;;;3.72;2.20;;;;;;;;;;4979688;28;20201;-59
2022/09/14 05:45:09;;;;;;;4.15;2.22;;;;;;;;;;4979872;28;20295;-58
2022/09/14 05:47:35;;;;;;;3.15;2.50;;;;;;;;;;4979579;28;20312;-58
2022/09/14 05:50:07;;;;;;;3.70;2.05;;;;;;;;;;4978876;28;20284;-59
2022/09/14 05:52:33;;;;;;;3.40;2.53;;;;;;;;;;4980368;28;20311;-59
2022/09/14 05:54:59;;;;;;;4.28;3.15;;;;;;;;;;4976622;28;20280;-59
2022/09/14 05:57:26;;;;;;;3.63;2.95;;;;;;;;;;4983170;28;20328;-59
2022/09/14 05:59:52;;;;;;;4.35;2.88;;;;;;;;;;4979984;28;20300;-59
2022/09/14 06:02:18;;;;;;;4.82;2.90;;;;;;;;;;4963796;28;20232;-57
2022/09/14 06:04:45;;;;;;;4.13;2.78;;;;;;;;;;4979309;28;20284;-57
2022/09/14 06:07:11;;;;;;;5.43;3.13;;;;;;;;;;4974204;28;20336;-57
2022/09/14 06:09:44;;;;;;;5.65;2.65;;;;;;;;;;4977287;28;20293;-58
2022/09/14 06:12:10;;;;;;;3.67;2.63;;;;;;;;;;4977208;28;20763;-57
2022/09/14 06:14:37;;;;;;;3.60;2.90;;;;;;;;;;4974574;28;20289;-58
2022/09/14 06:17:04;;;;;;;5.45;2.40;;;;;;;;;;4983729;28;20792;-59
2022/09/14 06:19:31;;;;;;;3.35;2.35;;;;;;;;;;4954785;28;20737;-58
2022/09/14 06:21:57;;;;;;;2.47;2.17;;;;;;;;;;4979344;28;20646;-59
2022/09/14 06:24:23;;;;;;;2.80;2.15;;;;;;;;;;4977138;28;20259;-59
2022/09/14 06:26:50;;;;;;;3.30;2.15;;;;;;;;;;4975979;28;20645;-60
2022/09/14 06:29:16;;;;;;;3.45;2.50;;;;;;;;;;4982196;28;20331;-61
2022/09/14 06:31:42;;;;;;;4.82;2.90;;;;;;;;;;4982404;28;20308;-60
2022/09/14 06:34:09;;;;;;;3.00;2.08;;;;;;;;;;4982243;28;20284;-60
2022/09/14 06:36:35;;;;;;;4.10;2.80;;;;;;;;;;4976665;28;20304;-59
2022/09/14 06:39:01;;;;;;;3.40;2.40;;;;;;;;;;4971928;28;20236;-60
2022/09/14 06:41:29;;;;;;;3.10;2.30;;;;;;;;;;4976964;28;20281;-61
2022/09/14 06:43:57;;;;;;;4.55;2.28;;;;;;;;;;4979488;28;20232;-61
2022/09/14 06:46:25;;;;;;;3.80;2.40;;;;;;;;;;4975246;28;20308;-61
2022/09/14 06:48:56;;;;;;;3.00;2.20;;;;;;;;;;4984259;28;20640;-59
2022/09/14 06:51:25;;;;;;;4.40;2.38;;;;;;;;;;4964452;28;20307;-57
2022/09/14 06:53:52;;;;;;;3.30;2.65;;;;;;;;;;4982402;28;20292;-58
2022/09/14 06:56:19;;;;;;;2.70;2.10;;;;;;;;;;4982064;28;20193;-58
2022/09/14 06:58:46;;;;;;;3.40;2.72;;;;;;;;;;4976451;28;20643;-57
2022/09/14 07:01:14;;;;;;;6.30;2.58;;;;;;;;;;4983776;28;20644;-58
2022/09/14 07:03:45;;;;;;;4.22;1.90;;;;;;;;;;4972135;28;20202;-56
2022/09/14 07:06:15;;;;;;;4.28;2.20;;;;;;;;;;4978189;28;20197;-56
2022/09/14 07:08:42;;;;;;;3.83;2.45;;;;;;;;;;4978676;28;20227;-56
2022/09/14 07:11:10;;;;;;;4.32;2.60;;;;;;;;;;4974055;28;20666;-56
2022/09/14 07:13:37;;;;;;;4.90;2.60;;;;;;;;;;4971875;28;20300;-56
2022/09/14 07:16:04;;;;;;;3.72;2.40;;;;;;;;;;4980209;28;20287;-54
2022/09/14 07:18:34;;;;;;;5.43;2.70;;;;;;;;;;4979665;28;20295;-56
2022/09/14 07:21:09;;;;;;;3.58;2.60;;;;;;;;;;4981230;28;20196;-56
2022/09/14 07:23:36;;;;;;;4.78;2.67;;;;;;;;;;4985718;28;20204;-56
2022/09/14 07:26:09;;;;;;;3.58;2.60;;;;;;;;;;4986502;28;20284;-55
2022/09/14 07:28:37;;;;;;;3.90;2.80;;;;;;;;;;4985825;28;20200;-54
2022/09/14 07:31:06;;;;;;;3.03;2.30;;;;;;;;;;4980319;28;20288;-59
2022/09/14 07:33:33;;;;;;;5.65;2.42;;;;;;;;;;4966064;28;20245;-58
2022/09/14 07:36:07;;;;;;;3.88;2.25;;;;;;;;;;4984343;28;20225;-59
2022/09/14 07:38:33;;;;;;;3.80;2.60;;;;;;;;;;4982841;28;20287;-59
2022/09/14 07:41:19;;;;;;;5.15;3.50;;;;;;;;;;4986781;28;20189;-58
2022/09/14 07:43:49;;;;;;;3.63;2.50;;;;;;;;;;4977549;28;20288;-59
2022/09/14 07:46:16;;;;;;;4.18;2.85;;;;;;;;;;4988944;28;20280;-57
2022/09/14 07:48:43;;;;;;;4.53;2.60;;;;;;;;;;4982536;28;20201;-58
2022/09/14 07:51:10;;;;;;;3.38;3.03;;;;;;;;;;4980979;28;20236;-55
2022/09/14 07:53:38;;;;;;;4.93;2.60;;;;;;;;;;4975923;28;20297;-58
2022/09/14 07:56:06;;;;;;;5.05;2.45;;;;;;;;;;4985655;28;20284;-57
2022/09/14 07:58:32;;;;;;;4.22;2.13;;;;;;;;;;4993425;28;20229;-59
2022/09/14 08:01:07;;;;;;;3.38;2.70;;;;;;;;;;4993637;28;20279;-58
2022/09/14 08:03:38;;;;;;;3.92;3.10;;;;;;;;;;4994064;28;20483;-59
2022/09/14 08:06:18;;;;;;;3.92;2.88;;;;;;;;;;4982026;28;20666;-55
2022/09/14 08:08:47;;;;;;;4.82;3.40;;;;;;;;;;4989499;28;20744;-56
2022/09/14 08:11:18;;;;;;;3.90;2.45;;;;;;;;;;4987210;28;20284;-60
2022/09/14 08:13:48;;;;;;;3.75;2.60;;;;;;;;;;4990594;28;20280;-60
2022/09/14 08:16:15;;;;;;;4.07;2.83;;;;;;;;;;4992966;28;20197;-60
2022/09/14 08:18:41;;;;;;;4.53;2.85;;;;;;;;;;4992274;28;20212;-60
2022/09/14 08:21:13;;;;;;;4.82;2.63;;;;;;;;;;4988331;28;20744;-59
2022/09/14 08:23:41;;;;;;;3.25;2.70;;;;;;;;;;4988929;28;20284;-57
2022/09/14 08:26:10;;;;;;;4.85;2.67;;;;;;;;;;4980016;28;20228;-57
2022/09/14 08:28:37;;;;;;;7.18;3.10;;;;;;;;;;4988650;28;20296;-57
2022/09/14 08:31:09;;;;;;;3.75;2.70;;;;;;;;;;4973631;28;20237;-60
2022/09/14 08:33:37;;;;;;;4.60;2.95;;;;;;;;;;4984612;28;20312;-60
2022/09/14 08:36:06;;;;;;;4.85;2.75;;;;;;;;;;4982021;28;20297;-60
2022/09/14 08:38:32;;;;;;;3.45;2.60;;;;;;;;;;4988548;28;20768;-61
2022/09/14 08:41:28;;;;;;;5.18;2.75;;;;;;;;;;4982321;28;20239;-61
2022/09/14 08:43:59;;;;;;;3.95;2.60;;;;;;;;;;4984169;28;20205;-60
2022/09/14 08:46:32;;;;;;;6.53;3.30;;;;;;;;;;4962596;28;20249;-56
2022/09/14 08:49:00;;;;;;;4.78;3.30;;;;;;;;;;4967004;28;20670;-55
2022/09/14 08:51:27;;;;;;;5.45;3.70;;;;;;;;;;4969271;28;20223;-56
2022/09/14 08:53:56;;;;;;;5.00;3.78;;;;;;;;;;4961461;28;20292;-56
2022/09/14 08:56:33;;;;;;;4.82;4.10;;;;;;;;;;4967113;28;20222;-55
2022/09/14 08:59:16;;;;;;;5.60;3.53;;;;;;;;;;4972664;28;20648;-55
2022/09/14 09:02:02;;;;;;;8.15;4.13;;;;;;;;;;4965607;28;20295;-56
2022/09/14 09:04:38;;;;;;;5.25;3.60;;;;;;;;;;4973093;28;20235;-56
2022/09/14 09:07:47;;;;;;;4.40;3.17;;;;;;;;;;4972875;28;20222;-56
2022/09/14 09:10:14;;;;;;;9.20;3.35;;;;;;;;;;4949496;28;20379;-57
2022/09/14 09:12:50;;;;;;;5.18;3.35;;;;;;;;;;4972446;28;20307;-56
2022/09/14 09:15:22;;;;;;;7.20;3.97;;;;;;;;;;4969156;28;20227;-57
2022/09/14 09:17:55;;;;;;;4.50;3.65;;;;;;;;;;4988994;28;20403;-57
2022/09/14 09:20:26;;;;;;;4.10;2.55;;;;;;;;;;4964709;28;20197;-59
2022/09/14 09:23:21;;;;;;;3.42;2.92;;;;;;;;;;4967896;28;20236;-60
2022/09/14 09:26:10;;;;;;;4.55;3.40;;;;;;;;;;4965405;28;20312;-59
2022/09/14 09:28:44;;;;;;;4.68;3.25;;;;;;;;;;4987920;28;20212;-57
2022/09/14 09:31:12;;;;;;;5.28;2.83;;;;;;;;;;4978770;28;20632;-58
2022/09/14 09:33:40;;;;;;;3.83;2.50;;;;;;;;;;4967843;28;20320;-57
2022/09/14 09:36:09;;;;;;;4.63;3.22;;;;;;;;;;4983824;28;20231;-59
2022/09/14 09:38:35;;;;;;;5.88;3.60;;;;;;;;;;4972677;28;20295;-57
2022/09/14 09:41:25;;;;;;;4.95;3.08;;;;;;;;;;4983795;28;20288;-60
2022/09/14 09:43:59;;;;;;;5.15;3.33;;;;;;;;;;4976166;28;20231;-58
2022/09/14 09:46:27;;;;;;;5.68;3.38;;;;;;;;;;4993457;28;20476;-58
2022/09/14 09:48:53;;;;;;;3.90;3.03;;;;;;;;;;4968821;28;20526;-60
2022/09/14 09:51:23;;;;;;;3.95;2.78;;;;;;;;;;4969492;28;20216;-59
2022/09/14 09:54:00;;;;;;;5.80;3.38;;;;;;;;;;4982560;28;20312;-60
2022/09/14 09:56:29;;;;;;;4.80;3.30;;;;;;;;;;4988482;28;20712;-60
2022/09/14 09:58:55;;;;;;;3.50;2.85;;;;;;;;;;4970438;28;20684;-58
2022/09/14 10:01:27;;;;;;;3.38;2.80;;;;;;;;;;4987889;28;20284;-60
2022/09/14 10:04:02;;;;;;;4.88;2.50;;;;;;;;;;4986605;28;20197;-59
2022/09/14 10:06:29;;;;;;;5.05;2.80;;;;;;;;;;4985142;28;20251;-59
2022/09/14 10:08:56;;;;;;;3.60;2.70;;;;;;;;;;4957114;28;20878;-58
2022/09/14 10:11:33;;;;;;;5.80;3.60;;;;;;;;;;4985748;28;20288;-58
2022/09/14 10:14:00;;;;;;;4.88;3.20;;;;;;;;;;4956642;28;20307;-58
2022/09/14 10:16:37;;;;;;;3.70;2.95;;;;;;;;;;4983848;28;20308;-57
2022/09/14 10:19:17;;;;;;;5.25;2.60;;;;;;;;;;4970345;28;20692;-58
2022/09/14 10:22:03;;;;;;;2.83;2.47;;;;;;;;;;4966670;28;20287;-58
2022/09/14 10:24:31;;;;;;;2.88;2.50;;;;;;;;;;4982889;28;20331;-60
2022/09/14 10:26:58;;;;;;;3.33;2.75;;;;;;;;;;4966345;28;20226;-59
2022/09/14 10:29:29;;;;;;;4.53;2.90;;;;;;;;;;4972388;28;20319;-58
2022/09/14 10:32:01;;;;;;;3.63;2.92;;;;;;;;;;4986760;28;20732;-56
2022/09/14 10:34:28;;;;;;;4.22;2.75;;;;;;;;;;4971268;28;20288;-57
2022/09/14 10:37:10;;;;;;;4.05;2.30;;;;;;;;;;4968351;28;20299;-56
2022/09/14 10:39:46;;;;;;;3.10;2.13;;;;;;;;;;4963834;28;20291;-58
2022/09/14 10:42:23;;;;;;;6.35;2.55;;;;;;;;;;4963096;28;20602;-59
2022/09/14 10:45:17;;;;;;;2.92;2.50;;;;;;;;;;4967276;28;20335;-58
2022/09/14 10:47:51;;;;;;;2.80;2.60;;;;;;;;;;4979628;28;20325;-58
2022/09/14 10:50:32;;;;;;;4.05;2.85;;;;;;;;;;4984702;28;20201;-59
2022/09/14 10:53:13;;;;;;;3.28;2.50;;;;;;;;;;4967988;28;20722;-59
2022/09/14 10:55:45;;;;;;;3.40;2.70;;;;;;;;;;4968017;28;20291;-60
2022/09/14 10:58:11;;;;;;;3.03;2.50;;;;;;;;;;4980845;28;20251;-59
2022/09/14 11:01:16;;;;;;;4.80;3.00;;;;;;;;;;4984314;28;20204;-58
2022/09/14 11:03:54;;;;;;;4.47;2.53;;;;;;;;;;4985488;28;20213;-54
2022/09/14 11:06:29;;;;;;;5.00;2.50;;;;;;;;;;4981571;28;20228;-56
2022/09/14 11:09:14;;;;;;;5.15;3.10;;;;;;;;;;4984602;28;20649;-57
2022/09/14 11:11:58;;;;;;;4.72;3.00;;;;;;;;;;4969832;28;20293;-59
2022/09/14 11:14:41;;;;;;;3.80;3.15;;;;;;;;;;4982554;28;20287;-59
2022/09/14 11:17:39;;;;;;;3.63;2.60;;;;;;;;;;4969202;28;20248;-57
2022/09/14 11:20:15;;;;;;;3.70;2.60;;;;;;;;;;4968284;28;20360;-55
2022/09/14 11:23:03;;;;;;;3.45;2.70;;;;;;;;;;4978743;28;20193;-59
2022/09/14 11:25:45;;;;;;;4.45;2.70;;;;;;;;;;4985275;28;20261;-58
2022/09/14 11:28:22;;;;;;;3.83;2.80;;;;;;;;;;4988623;28;20308;-58
2022/09/14 11:31:01;;;;;;;5.20;3.10;;;;;;;;;;4971581;28;20247;-57
2022/09/14 11:33:36;;;;;;;3.42;2.97;;;;;;;;;;4970982;28;20303;-60
2022/09/14 11:36:18;;;;;;;5.10;3.35;;;;;;;;;;4969731;28;20202;-59
2022/09/14 11:38:52;;;;;;;4.72;2.95;;;;;;;;;;4966555;28;20295;-61
2022/09/14 11:41:25;;;;;;;5.50;3.30;;;;;;;;;;4969927;28;20284;-61
2022/09/14 11:44:03;;;;;;;4.00;3.03;;;;;;;;;;4966096;28;20283;-59
2022/09/14 11:46:33;;;;;;;4.88;3.53;;;;;;;;;;4970316;28;20275;-59
2022/09/14 11:49:10;;;;;;;5.78;3.90;;;;;;;;;;4967718;28;20201;-59
2022/09/14 11:51:45;;;;;;;6.63;3.70;;;;;;;;;;4986291;28;20283;-60
2022/09/14 11:54:17;;;;;;;4.30;3.20;;;;;;;;;;4980561;28;20220;-58
2022/09/14 11:56:49;;;;;;;5.15;4.07;;;;;;;;;;4964190;28;20312;-58
2022/09/14 11:59:38;;;;;;;4.05;2.88;;;;;;;;;;4969041;28;20292;-62
2022/09/14 12:02:26;;;;;;;4.70;3.38;;;;;;;;;;4988148;28;20296;-56
2022/09/14 12:05:05;;;;;;;4.53;2.85;;;;;;;;;;4988404;28;20201;-59
2022/09/14 12:07:46;;;;;;;2.75;2.33;;;;;;;;;;4983031;28;20448;-59
2022/09/14 12:10:16;;;;;;;5.55;3.55;;;;;;;;;;4984185;28;20220;-58
2022/09/14 12:12:53;;;;;;;3.45;2.60;;;;;;;;;;4987436;28;20727;-59
2022/09/14 12:15:28;;;;;;;3.15;2.60;;;;;;;;;;4982860;28;20681;-58
2022/09/14 12:18:03;;;;;;;3.75;2.95;;;;;;;;;;4987619;28;20224;-55
2022/09/14 12:20:36;;;;;;;3.83;2.55;;;;;;;;;;4986307;28;20204;-57
2022/09/14 12:23:12;;;;;;;10.55;5.50;;;;;;;;;;4986306;28;20197;-55
2022/09/14 12:25:53;;;;;;;5.78;4.38;;;;;;;;;;4970795;28;20205;-56
2022/09/14 12:28:39;;;;;;;7.55;4.30;;;;;;;;;;4965276;28;20221;-56
2022/09/14 12:31:10;;;;;;;7.20;4.53;;;;;;;;;;4969857;28;20212;-52
2022/09/14 12:33:36;;;;;;;6.93;4.45;;;;;;;;;;4992648;28;20646;-57
2022/09/14 12:36:18;;;;;;;4.57;3.00;;;;;;;;;;4988604;28;20754;-58
2022/09/14 12:38:48;;;;;;;4.40;3.20;;;;;;;;;;4987037;28;20235;-59
2022/09/14 12:41:14;;;;;;;8.30;3.70;;;;;;;;;;4982018;28;20296;-57
2022/09/14 12:43:40;;;;;;;5.40;4.03;;;;;;;;;;4989195;28;20293;-58
2022/09/14 12:46:06;;;;;;;6.70;3.83;;;;;;;;;;4983294;28;20287;-58
2022/09/14 12:48:54;;;;;;;5.05;4.10;;;;;;;;;;4986054;28;20217;-58
2022/09/14 12:51:34;;;;;;;6.57;4.70;;;;;;;;;;4980387;28;20236;-60
2022/09/14 12:54:08;;;;;;;7.13;4.50;;;;;;;;;;4985808;28;20254;-62
2022/09/14 12:56:52;;;;;;;7.75;4.57;;;;;;;;;;4983516;28;20283;-61
2022/09/14 12:59:55;;;;;;;8.00;4.68;;;;;;;;;;4970245;28;20220;-60
2022/09/14 13:02:46;;;;;;;6.65;4.70;;;;;;;;;;4980738;28;20201;-60
2022/09/14 13:05:22;;;;;;;6.80;5.18;;;;;;;;;;4985411;28;20445;-57
2022/09/14 13:07:49;;;;;;;6.05;4.60;;;;;;;;;;4968030;28;20220;-61
2022/09/14 13:10:23;;;;;;;6.32;5.00;;;;;;;;;;4987159;28;20247;-61
2022/09/14 13:12:50;;;;;;;6.72;4.93;;;;;;;;;;4968665;28;22189;-61
2022/09/14 13:15:24;;;;;;;7.20;5.15;;;;;;;;;;4987840;28;20305;-61
2022/09/14 13:17:58;;;;;;;6.78;4.63;;;;;;;;;;4971948;28;20323;-62
2022/09/14 13:20:25;;;;;;;9.20;5.30;;;;;;;;;;4983544;28;20592;-63
2022/09/14 13:22:52;;;;;;;7.53;5.20;;;;;;;;;;4983748;28;20624;-62
2022/09/14 13:25:27;;;;;;;9.02;4.95;;;;;;;;;;4984188;28;20303;-59
2022/09/14 13:27:54;;;;;;;7.05;5.00;;;;;;;;;;4983195;28;20218;-61
2022/09/14 13:30:22;;;;;;;5.82;4.68;;;;;;;;;;4972514;28;20288;-61
2022/09/14 13:32:52;;;;;;;9.02;5.82;;;;;;;;;;4983141;28;20213;-59
2022/09/14 13:35:27;;;;;;;8.15;6.13;;;;;;;;;;4988574;28;20284;-60
2022/09/14 13:37:56;;;;;;;8.18;5.47;;;;;;;;;;4983814;28;20307;-59
2022/09/14 13:40:24;;;;;;;9.20;5.68;;;;;;;;;;4971252;28;20220;-57
2022/09/14 13:42:51;;;;;;;9.73;5.95;;;;;;;;;;4966849;28;20603;-60
2022/09/14 13:45:17;;;;;;;9.02;5.95;;;;;;;;;;4985091;28;20287;-58
2022/09/14 13:47:43;;;;;;;10.23;6.18;;;;;;;;;;4967766;28;20316;-57
2022/09/14 13:50:11;;;;;;;9.93;6.40;;;;;;;;;;4971016;28;20292;-57
2022/09/14 13:52:41;;;;;;;8.68;5.93;;;;;;;;;;4965331;28;20292;-55
2022/09/14 13:55:30;;;;;;;8.90;6.22;;;;;;;;;;4980268;28;20200;-57
2022/09/14 13:58:08;;;;;;;7.50;5.70;;;;;;;;;;4981948;28;20217;-56
2022/09/14 14:01:00;;;;;;;8.85;6.32;;;;;;;;;;4985603;28;20232;-58
2022/09/14 14:03:32;;;;;;;9.23;6.32;;;;;;;;;;4965821;28;20232;-58
2022/09/14 14:06:04;;;;;;;9.98;6.40;;;;;;;;;;4979187;28;20200;-58
2022/09/14 14:08:33;;;;;;;11.65;6.22;;;;;;;;;;4966366;28;20280;-59
2022/09/14 14:11:02;;;;;;;8.65;6.10;;;;;;;;;;4963655;28;20296;-57
2022/09/14 14:13:30;;;;;;;8.25;6.43;;;;;;;;;;4967968;28;20222;-59
2022/09/14 14:16:32;;;;;;;10.15;6.60;;;;;;;;;;4960102;28;20639;-58
2022/09/14 14:18:59;;;;;;;9.15;6.20;;;;;;;;;;4911501;29;20701;-61
2022/09/14 14:21:30;;;;;;;9.00;6.28;;;;;;;;;;4962284;28;20283;-55
2022/09/14 14:24:16;;;;;;;10.57;6.72;;;;;;;;;;4985329;28;20239;-56
2022/09/14 14:26:47;;;;;;;9.07;6.80;;;;;;;;;;4979998;28;20303;-61
2022/09/14 14:29:15;;;;;;;9.00;6.35;;;;;;;;;;4965918;28;20202;-61
2022/09/14 14:31:41;;;;;;;6.28;4.38;;;;;;;;;;4970359;28;20291;-62
2022/09/14 14:34:18;;;;;;;6.25;4.60;;;;;;;;;;4978901;28;20268;-63
2022/09/14 14:36:46;;;;;;;6.85;4.25;;;;;;;;;;4979311;28;20639;-63
2022/09/14 14:39:13;;;;;;;5.88;4.05;;;;;;;;;;4986651;28;20290;-62
2022/09/14 14:41:40;;;;;;;5.03;3.65;;;;;;;;;;4976575;28;20636;-61
2022/09/14 14:44:11;;;;;;;6.28;3.55;;;;;;;;;;4987082;28;20276;-61
2022/09/14 14:46:37;;;;;;;5.25;3.53;;;;;;;;;;4988340;28;20308;-60
2022/09/14 14:49:03;;;;;;;8.90;3.15;;;;;;;;;;4968627;28;20200;-58
2022/09/14 14:51:30;;;;;;;5.35;3.72;;;;;;;;;;4982441;28;20201;-58
2022/09/14 14:53:56;;;;;;;5.97;4.15;;;;;;;;;;4981055;28;20350;-60
2022/09/14 14:56:22;;;;;;;6.45;3.47;;;;;;;;;;4977325;28;20255;-61
2022/09/14 14:58:49;;;;;;;6.18;3.60;;;;;;;;;;4982763;28;20658;-58
2022/09/14 15:01:15;;;;;;;5.35;3.85;;;;;;;;;;4984652;28;20273;-60
2022/09/14 15:03:43;;;;;;;5.78;3.63;;;;;;;;;;4984478;28;20577;-60
2022/09/14 15:06:14;;;;;;;5.32;3.85;;;;;;;;;;4980501;28;20213;-57
2022/09/14 15:08:40;;;;;;;5.82;3.90;;;;;;;;;;4980564;28;20641;-56
2022/09/14 15:11:15;;;;;;;6.20;3.95;;;;;;;;;;4982395;28;20197;-58